Time;durP1;ratioP1;P1;durP2;ratioP2;P2;SDS_P1;SDS_P2;PMS_P1;PMS_P2;Temp;Humidity;BMP_temperature;BMP_pressure;BME280_temperature;BME280_humidity;BME280_pressure;Samples;Min_cycle;Max_cycle;Signal;HPM_P1;HPM_P2
2022/11/14 00:00:11;;;;;;;152.48;57.17;;;3.70;99.90;;;;;;5070217;28;20236;-83
2022/11/14 00:02:38;;;;;;;156.02;51.67;;;3.60;99.90;;;;;;5066775;28;20220;-83
2022/11/14 00:05:10;;;;;;;187.32;59.72;;;3.60;99.90;;;;;;5055735;28;20200;-85
2022/11/14 00:07:38;;;;;;;266.40;65.28;;;3.50;99.90;;;;;;5059844;28;20216;-85
2022/11/14 00:10:05;;;;;;;168.00;55.05;;;3.50;99.90;;;;;;5049276;28;20496;-86
2022/11/14 00:12:33;;;;;;;163.75;57.17;;;3.50;99.90;;;;;;5043873;28;20243;-85
2022/11/14 00:15:02;;;;;;;160.75;56.83;;;3.50;99.90;;;;;;5059687;28;20726;-87
2022/11/14 00:17:30;;;;;;;184.52;60.13;;;3.50;99.90;;;;;;5047425;28;20220;-88
2022/11/14 00:19:58;;;;;;;264.85;69.22;;;3.50;99.90;;;;;;5043093;28;20251;-85
2022/11/14 00:22:26;;;;;;;233.90;66.97;;;3.60;99.90;;;;;;5058496;28;20213;-86
2022/11/14 00:24:54;;;;;;;321.90;78.53;;;3.50;99.90;;;;;;5043608;28;20258;-85
2022/11/14 00:27:22;;;;;;;167.88;60.50;;;3.60;99.90;;;;;;5057577;28;20263;-86
2022/11/14 00:29:49;;;;;;;172.93;60.30;;;3.60;99.90;;;;;;5048864;28;20209;-87
2022/11/14 00:32:18;;;;;;;183.32;60.85;;;3.90;99.90;;;;;;5051645;28;20247;-86
2022/11/14 00:34:52;;;;;;;218.90;65.25;;;3.70;99.90;;;;;;5039678;28;20584;-85
2022/11/14 00:37:20;;;;;;;164.80;56.25;;;3.70;99.90;;;;;;5043832;28;20205;-84
2022/11/14 00:39:55;;;;;;;166.35;61.55;;;3.70;99.90;;;;;;5043907;28;20211;-85
2022/11/14 00:42:23;;;;;;;168.43;66.32;;;3.80;99.90;;;;;;5049851;28;20289;-89
2022/11/14 00:44:51;;;;;;;224.75;66.15;;;3.80;99.90;;;;;;5046290;28;20214;-83
2022/11/14 00:47:22;;;;;;;208.82;68.57;;;3.90;99.90;;;;;;5064263;28;20266;-83
2022/11/14 00:49:54;;;;;;;155.25;60.30;;;4.00;99.90;;;;;;5058395;28;20192;-87
2022/11/14 00:52:24;;;;;;;165.80;59.38;;;3.90;99.90;;;;;;5052136;28;20216;-86
2022/11/14 00:54:52;;;;;;;157.40;60.72;;;3.90;99.90;;;;;;5045944;28;20228;-85
2022/11/14 00:57:27;;;;;;;177.60;59.85;;;3.80;99.90;;;;;;5058875;28;20195;-84
2022/11/14 00:59:57;;;;;;;149.55;57.05;;;3.80;99.90;;;;;;5046752;28;20271;-86
2022/11/14 01:02:23;;;;;;;173.20;54.83;;;3.80;99.90;;;;;;5043751;28;20243;-84
2022/11/14 01:04:51;;;;;;;143.73;61.20;;;3.80;99.90;;;;;;5047854;28;20209;-86
2022/11/14 01:07:18;;;;;;;195.35;66.15;;;3.80;99.90;;;;;;5049160;28;20197;-87
2022/11/14 01:09:45;;;;;;;158.70;60.30;;;3.80;99.90;;;;;;5044726;28;20260;-88
2022/11/14 01:12:15;;;;;;;186.23;62.83;;;3.80;99.90;;;;;;5058914;28;20205;-87
2022/11/14 01:14:42;;;;;;;153.27;58.65;;;3.80;99.90;;;;;;5042883;28;20579;-87
2022/11/14 01:17:10;;;;;;;143.07;57.20;;;3.80;99.90;;;;;;5042345;28;20385;-87
2022/11/14 01:19:38;;;;;;;134.05;61.17;;;3.80;99.90;;;;;;5041505;28;20250;-87
2022/11/14 01:22:05;;;;;;;127.78;53.75;;;3.70;99.90;;;;;;5057054;28;20212;-88
2022/11/14 01:24:33;;;;;;;115.50;53.50;;;3.70;99.90;;;;;;5042063;28;20239;-84
2022/11/14 01:27:02;;;;;;;147.80;59.30;;;3.70;99.90;;;;;;5042494;28;20209;-87
2022/11/14 01:29:29;;;;;;;187.82;64.50;;;3.80;99.90;;;;;;5054555;28;20443;-85
2022/11/14 01:31:57;;;;;;;124.05;56.25;;;3.80;99.90;;;;;;5041891;28;20205;-88
2022/11/14 01:34:25;;;;;;;160.93;60.00;;;3.90;99.90;;;;;;5041366;28;20280;-85
2022/11/14 01:36:52;;;;;;;144.98;55.35;;;3.90;99.90;;;;;;5035764;28;20193;-87
2022/11/14 01:39:21;;;;;;;171.52;63.88;;;3.80;99.90;;;;;;5045253;28;20214;-85
2022/11/14 01:41:50;;;;;;;119.88;53.42;;;3.80;99.90;;;;;;5031177;28;20270;-82
2022/11/14 01:44:42;;;;;;;115.22;58.50;;;3.70;99.90;;;;;;5057332;28;20216;-86
2022/11/14 01:47:23;;;;;;;148.60;64.18;;;3.80;99.90;;;;;;5054891;28;20201;-87
2022/11/14 01:49:57;;;;;;;150.82;63.55;;;3.70;99.90;;;;;;5041685;28;20205;-83
2022/11/14 01:52:34;;;;;;;201.40;71.68;;;3.80;99.90;;;;;;5041718;28;20272;-86
2022/11/14 01:55:06;;;;;;;207.68;62.83;;;3.80;99.90;;;;;;5042516;28;20239;-84
2022/11/14 01:57:38;;;;;;;174.82;66.22;;;3.80;99.90;;;;;;5041054;28;20213;-85
2022/11/14 02:00:10;;;;;;;208.43;71.13;;;3.70;99.90;;;;;;5029045;28;20230;-86
2022/11/14 02:02:37;;;;;;;187.40;69.13;;;3.70;99.90;;;;;;5041120;28;20267;-84
2022/11/14 02:05:10;;;;;;;169.43;71.15;;;3.70;99.90;;;;;;5033335;28;20273;-86
2022/11/14 02:07:39;;;;;;;247.55;85.40;;;3.60;99.90;;;;;;5054995;28;20254;-86
2022/11/14 02:10:10;;;;;;;225.00;77.97;;;3.60;99.90;;;;;;5041728;28;20209;-83
2022/11/14 02:12:39;;;;;;;249.20;82.57;;;3.60;99.90;;;;;;5040684;28;20492;-84
2022/11/14 02:15:08;;;;;;;325.77;92.90;;;3.70;99.90;;;;;;5070607;28;20228;-85
2022/11/14 02:17:36;;;;;;;307.42;89.72;;;3.60;99.90;;;;;;5040094;28;20574;-86
2022/11/14 02:20:09;;;;;;;244.85;84.20;;;3.60;99.90;;;;;;5039122;28;20201;-89
2022/11/14 02:22:39;;;;;;;223.45;82.43;;;3.60;99.90;;;;;;5040518;28;20208;-88
2022/11/14 02:25:08;;;;;;;275.13;88.80;;;3.60;99.90;;;;;;5040309;28;20500;-85
2022/11/14 02:27:40;;;;;;;237.88;83.15;;;3.70;99.90;;;;;;5048306;28;20232;-85
2022/11/14 02:30:11;;;;;;;305.67;84.05;;;3.70;99.90;;;;;;5046386;28;20197;-88
2022/11/14 02:32:38;;;;;;;215.57;78.18;;;3.60;99.90;;;;;;5040568;28;20212;-86
2022/11/14 02:35:26;;;;;;;254.25;84.55;;;3.70;99.90;;;;;;5060979;28;20220;-88
2022/11/14 02:37:53;;;;;;;262.25;87.70;;;3.60;99.90;;;;;;5039451;28;20239;-88
2022/11/14 02:40:21;;;;;;;230.63;75.20;;;3.60;99.90;;;;;;5040699;28;20235;-86
2022/11/14 02:42:48;;;;;;;226.65;89.07;;;3.60;99.90;;;;;;5041553;28;20204;-88
2022/11/14 02:45:15;;;;;;;207.85;75.28;;;3.70;99.90;;;;;;5046033;28;20214;-87
2022/11/14 02:47:43;;;;;;;256.75;89.88;;;3.70;99.90;;;;;;5067245;28;20181;-89
2022/11/14 02:50:10;;;;;;;241.13;89.63;;;3.70;99.90;;;;;;5071187;28;20195;-88
2022/11/14 02:52:37;;;;;;;246.02;86.13;;;3.60;99.90;;;;;;5069556;28;20259;-87
2022/11/14 02:55:06;;;;;;;289.08;92.15;;;3.70;99.90;;;;;;5042515;28;20225;-90
2022/11/14 02:57:33;;;;;;;270.35;93.78;;;3.60;99.90;;;;;;5053399;28;20204;-88
2022/11/14 03:00:01;;;;;;;243.25;82.70;;;3.60;99.90;;;;;;5068027;28;20388;-86
2022/11/14 03:02:40;;;;;;;269.17;93.93;;;3.60;99.90;;;;;;5040452;28;20467;-87
2022/11/14 03:05:08;;;;;;;325.50;108.82;;;3.60;99.90;;;;;;5046035;28;20251;-87
2022/11/14 03:07:36;;;;;;;289.15;97.28;;;3.60;99.90;;;;;;5040154;28;20233;-90
2022/11/14 03:10:08;;;;;;;288.20;98.93;;;3.70;99.90;;;;;;5045357;28;20267;-88
2022/11/14 03:12:35;;;;;;;386.27;117.28;;;3.60;99.90;;;;;;5050940;28;20313;-88
2022/11/14 03:15:04;;;;;;;264.80;100.65;;;3.50;99.90;;;;;;5046139;28;20393;-85
2022/11/14 03:17:34;;;;;;;297.77;96.63;;;3.60;99.90;;;;;;5058171;28;20196;-84
2022/11/14 03:20:01;;;;;;;276.95;96.57;;;3.60;99.90;;;;;;5029992;28;20207;-86
2022/11/14 03:22:31;;;;;;;303.85;107.88;;;3.70;99.90;;;;;;5042070;28;20687;-87
2022/11/14 03:24:58;;;;;;;253.30;93.32;;;3.70;99.90;;;;;;5059169;28;20197;-89
2022/11/14 03:27:27;;;;;;;272.60;94.22;;;3.90;99.90;;;;;;5040642;28;20209;-88
2022/11/14 03:29:56;;;;;;;226.13;88.47;;;3.80;99.90;;;;;;5041411;28;20392;-83
2022/11/14 03:32:23;;;;;;;298.63;91.40;;;3.80;99.90;;;;;;5042591;28;20212;-87
2022/11/14 03:34:51;;;;;;;307.05;86.25;;;3.70;99.90;;;;;;5040386;28;20480;-85
2022/11/14 03:37:19;;;;;;;241.27;79.88;;;3.90;99.90;;;;;;5036834;28;20205;-87
2022/11/14 03:39:47;;;;;;;281.13;92.97;;;3.80;99.90;;;;;;5047733;28;20656;-87
2022/11/14 03:42:14;;;;;;;251.15;83.82;;;3.80;99.90;;;;;;5043219;28;20204;-84
2022/11/14 03:44:42;;;;;;;317.77;97.72;;;3.90;99.90;;;;;;5055025;28;20211;-84
2022/11/14 03:47:10;;;;;;;312.02;94.53;;;3.90;99.90;;;;;;5046920;28;20201;-85
2022/11/14 03:49:36;;;;;;;312.70;89.70;;;3.90;99.90;;;;;;5043790;28;20209;-84
2022/11/14 03:52:04;;;;;;;304.02;81.68;;;4.00;99.90;;;;;;5043724;28;20197;-87
2022/11/14 03:54:32;;;;;;;351.30;90.13;;;4.10;99.90;;;;;;5058882;28;20247;-84
2022/11/14 03:56:59;;;;;;;270.58;85.60;;;4.10;99.90;;;;;;5043292;28;20560;-87
2022/11/14 03:59:28;;;;;;;255.32;84.43;;;4.10;99.90;;;;;;5044925;28;20205;-86
2022/11/14 04:01:55;;;;;;;289.20;88.78;;;4.10;99.90;;;;;;5047377;28;20201;-88
2022/11/14 04:04:22;;;;;;;298.13;90.15;;;4.20;99.90;;;;;;5048288;28;20247;-83
2022/11/14 04:09:57;;;;;;;260.73;81.32;;;4.20;99.90;;;;;;5057628;28;20211;-84
2022/11/14 04:12:26;;;;;;;271.63;88.82;;;4.20;99.90;;;;;;5052962;28;20240;-84
2022/11/14 04:14:57;;;;;;;284.95;95.10;;;4.30;99.90;;;;;;5042101;28;20370;-84
2022/11/14 04:17:24;;;;;;;251.82;88.90;;;4.40;99.90;;;;;;5057932;28;20220;-83
2022/11/14 04:19:57;;;;;;;245.88;85.53;;;4.50;99.90;;;;;;5061228;28;20204;-86
2022/11/14 04:22:24;;;;;;;261.85;77.30;;;4.70;99.90;;;;;;5043198;28;20236;-85
2022/11/14 04:24:51;;;;;;;319.30;89.70;;;4.80;99.90;;;;;;5043724;28;20200;-85
2022/11/14 04:27:19;;;;;;;263.75;82.93;;;4.50;99.90;;;;;;5043202;28;20213;-85
2022/11/14 04:29:45;;;;;;;201.93;76.00;;;4.60;99.90;;;;;;5043230;28;20438;-85
2022/11/14 04:32:17;;;;;;;223.82;73.80;;;4.60;99.90;;;;;;5043016;28;20272;-83
2022/11/14 04:34:46;;;;;;;245.68;68.18;;;4.70;99.90;;;;;;5058279;28;20201;-86
2022/11/14 04:37:13;;;;;;;187.68;63.17;;;4.50;99.90;;;;;;5042537;28;20481;-86
2022/11/14 04:39:40;;;;;;;186.98;60.80;;;4.50;99.90;;;;;;5042401;28;20224;-87
2022/11/14 04:42:07;;;;;;;192.02;61.72;;;4.40;99.90;;;;;;5042839;28;20221;-85
2022/11/14 04:44:34;;;;;;;210.70;60.80;;;4.40;99.90;;;;;;5041551;28;20213;-87
2022/11/14 04:47:08;;;;;;;182.55;64.78;;;4.40;99.90;;;;;;5042897;28;20221;-88
2022/11/14 04:49:36;;;;;;;181.18;59.63;;;4.60;99.90;;;;;;5058874;28;20228;-85
2022/11/14 04:52:05;;;;;;;177.82;61.50;;;4.50;99.90;;;;;;5043426;28;20239;-84
2022/11/14 04:54:32;;;;;;;168.18;59.88;;;4.50;99.90;;;;;;5047321;28;20220;-86
2022/11/14 04:57:02;;;;;;;173.27;61.13;;;4.50;99.90;;;;;;5049331;28;20232;-84
2022/11/14 04:59:29;;;;;;;211.25;67.13;;;4.50;99.90;;;;;;5048330;28;20261;-82
2022/11/14 05:02:00;;;;;;;218.48;66.30;;;4.40;99.90;;;;;;5059362;28;20204;-89
2022/11/14 05:04:32;;;;;;;204.57;65.15;;;4.40;99.90;;;;;;5047223;28;20425;-88
2022/11/14 05:06:59;;;;;;;225.80;72.15;;;4.50;99.90;;;;;;5045154;28;20262;-86
2022/11/14 05:09:27;;;;;;;204.48;69.15;;;4.50;99.90;;;;;;5048945;28;20224;-85
2022/11/14 05:11:55;;;;;;;235.48;72.25;;;4.50;99.90;;;;;;5051227;28;20449;-84
2022/11/14 05:14:23;;;;;;;265.23;74.95;;;4.50;99.90;;;;;;5051685;28;20213;-85
2022/11/14 05:16:50;;;;;;;272.77;81.47;;;4.50;99.90;;;;;;5073277;28;20228;-85
2022/11/14 05:19:18;;;;;;;225.00;70.70;;;4.50;99.90;;;;;;5053882;28;20197;-88
2022/11/14 05:21:50;;;;;;;218.45;81.85;;;4.50;99.90;;;;;;5054970;28;20280;-82
2022/11/14 05:24:23;;;;;;;303.35;89.15;;;4.50;99.90;;;;;;5058725;28;20215;-83
2022/11/14 05:26:51;;;;;;;321.63;86.57;;;4.50;99.90;;;;;;5053208;28;20228;-85
2022/11/14 05:29:21;;;;;;;334.92;99.70;;;4.50;99.90;;;;;;5064333;28;20504;-88
2022/11/14 05:31:50;;;;;;;348.98;96.13;;;4.50;99.90;;;;;;5046555;28;20205;-86
2022/11/14 05:34:18;;;;;;;325.83;99.97;;;4.50;99.90;;;;;;5063005;28;20201;-84
2022/11/14 05:36:45;;;;;;;355.95;95.40;;;4.60;99.90;;;;;;5048178;28;20228;-87
2022/11/14 05:39:14;;;;;;;275.80;79.32;;;4.60;99.90;;;;;;5048623;28;20258;-85
2022/11/14 05:41:41;;;;;;;281.92;80.28;;;4.60;99.90;;;;;;5043751;28;20751;-89
2022/11/14 05:44:09;;;;;;;347.60;95.15;;;4.50;99.90;;;;;;5056251;28;20247;-82
2022/11/14 05:46:39;;;;;;;296.83;88.75;;;4.60;99.90;;;;;;5040902;28;20427;-83
2022/11/14 05:49:06;;;;;;;329.60;90.07;;;4.60;99.90;;;;;;5040928;28;20404;-86
2022/11/14 05:51:33;;;;;;;290.52;92.85;;;4.60;99.90;;;;;;5041877;28;20401;-85
2022/11/14 05:54:01;;;;;;;323.45;102.93;;;4.60;99.90;;;;;;5041573;28;20193;-84
2022/11/14 05:56:30;;;;;;;294.13;97.95;;;4.70;99.90;;;;;;5045969;28;20523;-87
2022/11/14 05:58:57;;;;;;;308.52;100.88;;;4.70;99.90;;;;;;5056693;28;20204;-84
2022/11/14 06:01:26;;;;;;;247.38;85.15;;;4.70;99.90;;;;;;5041870;28;20204;-84
2022/11/14 06:03:54;;;;;;;217.20;77.68;;;4.70;99.90;;;;;;5041165;28;20264;-86
2022/11/14 06:06:21;;;;;;;157.63;63.10;;;4.70;99.90;;;;;;5041356;28;20239;-82
2022/11/14 06:08:51;;;;;;;209.32;69.35;;;4.70;99.90;;;;;;5041841;28;20209;-87
2022/11/14 06:11:20;;;;;;;192.35;64.80;;;4.70;99.90;;;;;;5041127;28;20238;-85
2022/11/14 06:13:48;;;;;;;192.35;66.05;;;4.80;99.90;;;;;;5042332;28;20200;-85
2022/11/14 06:16:19;;;;;;;205.38;68.95;;;4.80;99.90;;;;;;5057639;28;20224;-86
2022/11/14 06:18:51;;;;;;;193.63;63.22;;;4.80;99.90;;;;;;5028340;28;20209;-84
2022/11/14 06:21:24;;;;;;;189.88;65.82;;;4.90;99.90;;;;;;5056505;28;20228;-90
2022/11/14 06:23:53;;;;;;;174.85;62.88;;;4.80;99.90;;;;;;5044116;28;20208;-88
2022/11/14 06:26:24;;;;;;;179.05;67.38;;;4.70;99.90;;;;;;5039608;28;20757;-88
2022/11/14 06:28:52;;;;;;;165.88;61.60;;;4.90;99.90;;;;;;5027197;28;20197;-86
2022/11/14 06:31:20;;;;;;;174.95;64.13;;;4.80;99.90;;;;;;5039887;28;20239;-84
2022/11/14 06:33:48;;;;;;;148.85;57.22;;;4.70;99.90;;;;;;5039316;28;20193;-84
2022/11/14 06:36:16;;;;;;;167.48;61.72;;;4.70;99.90;;;;;;5057061;28;20263;-84
2022/11/14 06:38:43;;;;;;;166.02;62.08;;;4.80;99.90;;;;;;5046128;28;20205;-87
2022/11/14 06:41:16;;;;;;;182.13;63.50;;;4.80;99.90;;;;;;5042236;28;20209;-85
2022/11/14 06:43:46;;;;;;;165.82;62.53;;;4.80;99.90;;;;;;5049863;28;20225;-86
2022/11/14 06:46:16;;;;;;;190.82;67.43;;;4.80;99.90;;;;;;5056696;28;20209;-86
2022/11/14 06:48:46;;;;;;;176.68;65.65;;;4.90;99.90;;;;;;5033494;28;20239;-86
2022/11/14 06:51:16;;;;;;;167.23;62.72;;;4.80;99.90;;;;;;5043185;28;20247;-85
2022/11/14 06:53:43;;;;;;;158.93;61.88;;;4.80;99.90;;;;;;5068749;28;20200;-89
2022/11/14 06:56:19;;;;;;;146.50;58.97;;;5.00;99.90;;;;;;5055354;28;20220;-88
2022/11/14 06:58:48;;;;;;;151.90;60.60;;;4.90;99.90;;;;;;5055326;28;20196;-86
2022/11/14 07:01:18;;;;;;;151.57;63.05;;;4.90;99.90;;;;;;5046698;28;20217;-83
2022/11/14 07:03:47;;;;;;;171.57;58.92;;;5.00;99.90;;;;;;5050850;28;20200;-87
2022/11/14 07:06:25;;;;;;;151.18;57.67;;;4.90;99.90;;;;;;5042934;28;20205;-84
2022/11/14 07:08:55;;;;;;;156.25;60.38;;;4.90;99.90;;;;;;5039030;28;20270;-87
2022/11/14 07:11:28;;;;;;;157.45;65.63;;;4.90;99.90;;;;;;5043717;28;20273;-85
2022/11/14 07:14:00;;;;;;;170.68;63.70;;;5.00;99.90;;;;;;5055040;28;20177;-84
2022/11/14 07:16:34;;;;;;;163.43;64.00;;;5.00;99.90;;;;;;5048758;28;20228;-87
2022/11/14 07:19:08;;;;;;;141.27;58.85;;;5.10;99.90;;;;;;5059794;28;20200;-86
2022/11/14 07:21:41;;;;;;;172.57;64.97;;;5.20;99.90;;;;;;5048561;28;20205;-88
2022/11/14 07:24:08;;;;;;;158.27;64.18;;;5.30;99.90;;;;;;5034848;28;20205;-88
2022/11/14 07:26:39;;;;;;;149.05;60.60;;;5.20;99.90;;;;;;5050180;28;20289;-86
2022/11/14 07:29:26;;;;;;;142.00;61.25;;;5.20;99.90;;;;;;5054703;28;20272;-84
2022/11/14 07:32:08;;;;;;;137.35;58.17;;;5.20;99.90;;;;;;5050570;28;20205;-86
2022/11/14 07:34:36;;;;;;;128.40;56.90;;;5.20;99.90;;;;;;5048169;28;20197;-86
2022/11/14 07:37:03;;;;;;;160.65;59.80;;;5.20;99.90;;;;;;5048369;28;20239;-84
2022/11/14 07:39:30;;;;;;;138.13;58.17;;;5.30;99.90;;;;;;5063604;28;20209;-85
2022/11/14 07:42:18;;;;;;;135.50;55.25;;;5.20;99.90;;;;;;5047514;28;20263;-88
2022/11/14 07:45:01;;;;;;;141.35;55.63;;;5.30;99.90;;;;;;5052037;28;20227;-87
2022/11/14 07:47:36;;;;;;;128.35;59.00;;;5.30;99.90;;;;;;5043077;28;20220;-86
2022/11/14 07:50:07;;;;;;;141.77;60.60;;;5.40;99.90;;;;;;5062866;28;20288;-89
2022/11/14 07:52:35;;;;;;;156.25;66.18;;;5.40;99.90;;;;;;5048418;28;20543;-86
2022/11/14 07:55:04;;;;;;;132.07;62.67;;;5.40;99.90;;;;;;5055929;28;20265;-85
2022/11/14 07:57:34;;;;;;;127.80;59.10;;;5.50;99.90;;;;;;5050705;28;20217;-87
2022/11/14 08:00:14;;;;;;;151.15;60.58;;;5.50;99.90;;;;;;5049640;28;20559;-85
2022/11/14 08:02:46;;;;;;;112.85;53.90;;;5.70;99.90;;;;;;5069193;28;20223;-85
2022/11/14 08:05:16;;;;;;;122.63;50.20;;;5.80;99.90;;;;;;5073073;28;20193;-85
2022/11/14 08:07:49;;;;;;;134.55;53.90;;;5.80;99.90;;;;;;5047776;28;20272;-84
2022/11/14 08:10:18;;;;;;;117.15;54.13;;;5.80;99.90;;;;;;5049857;28;20208;-86
2022/11/14 08:13:02;;;;;;;110.70;53.03;;;5.90;99.90;;;;;;5038779;28;20239;-86
2022/11/14 08:16:10;;;;;;;129.05;53.70;;;5.90;99.90;;;;;;5040310;28;20224;-84
2022/11/14 08:18:44;;;;;;;120.20;55.13;;;6.00;99.90;;;;;;5052434;28;20196;-83
2022/11/14 08:21:31;;;;;;;114.93;54.10;;;6.10;99.90;;;;;;5047754;28;20232;-85
2022/11/14 08:24:02;;;;;;;107.35;51.10;;;6.30;99.90;;;;;;5054482;28;20333;-89
2022/11/14 08:26:47;;;;;;;97.45;48.33;;;6.20;99.90;;;;;;5052014;28;20207;-84
2022/11/14 08:29:22;;;;;;;102.40;50.05;;;6.10;99.90;;;;;;5047136;28;20476;-86
2022/11/14 08:32:12;;;;;;;117.05;50.92;;;6.00;99.90;;;;;;5046115;28;20594;-87
2022/11/14 08:34:44;;;;;;;100.65;48.83;;;6.10;99.90;;;;;;5046117;28;20205;-84
2022/11/14 08:37:18;;;;;;;85.13;45.20;;;6.10;99.90;;;;;;5053097;28;20616;-86
2022/11/14 08:39:45;;;;;;;83.80;46.30;;;6.10;99.90;;;;;;5035346;28;20232;-86
2022/11/14 08:42:15;;;;;;;100.03;46.90;;;6.20;99.90;;;;;;5044370;28;20204;-80
2022/11/14 08:44:44;;;;;;;95.88;42.58;;;6.30;99.90;;;;;;5043372;28;20213;-85
2022/11/14 08:47:18;;;;;;;91.13;44.55;;;6.40;99.90;;;;;;5030515;28;20255;-81
2022/11/14 08:49:49;;;;;;;79.70;41.20;;;6.30;99.90;;;;;;5048503;28;20263;-84
2022/11/14 08:52:16;;;;;;;76.22;44.10;;;6.20;99.90;;;;;;5042376;28;20295;-83
2022/11/14 08:54:56;;;;;;;86.97;44.13;;;6.30;99.90;;;;;;5044749;28;20227;-83
2022/11/14 08:57:25;;;;;;;83.90;43.83;;;6.30;99.90;;;;;;5046755;28;20213;-85
2022/11/14 08:59:54;;;;;;;85.45;45.67;;;6.20;99.90;;;;;;5053336;28;20380;-84
2022/11/14 09:02:21;;;;;;;93.57;39.78;;;6.30;99.90;;;;;;5073720;28;20204;-84
2022/11/14 09:04:49;;;;;;;72.70;38.05;;;6.40;99.90;;;;;;5044216;28;20212;-84
2022/11/14 09:07:19;;;;;;;79.93;37.97;;;6.40;99.90;;;;;;5044541;28;20223;-83
2022/11/14 09:09:47;;;;;;;89.30;43.17;;;6.30;99.90;;;;;;5045142;28;20208;-83
2022/11/14 09:12:23;;;;;;;88.53;41.50;;;6.30;99.90;;;;;;5044544;28;20251;-79
2022/11/14 09:14:51;;;;;;;88.43;42.47;;;6.30;99.90;;;;;;5042407;28;20242;-82
2022/11/14 09:17:18;;;;;;;82.07;44.60;;;6.40;99.90;;;;;;5042248;28;20220;-86
2022/11/14 09:19:45;;;;;;;76.03;39.70;;;6.50;99.90;;;;;;5040128;28;20227;-81
2022/11/14 09:22:15;;;;;;;80.03;42.25;;;6.40;99.90;;;;;;5049560;28;20315;-83
2022/11/14 09:24:46;;;;;;;85.35;45.28;;;6.40;99.90;;;;;;5042449;28;20559;-84
2022/11/14 09:27:13;;;;;;;78.55;43.92;;;6.40;99.90;;;;;;5034669;28;20193;-85
2022/11/14 09:29:40;;;;;;;90.90;48.55;;;6.40;99.90;;;;;;5042193;28;20208;-84
2022/11/14 09:32:08;;;;;;;83.70;42.97;;;6.50;99.90;;;;;;5040698;28;20247;-87
2022/11/14 09:34:36;;;;;;;86.50;44.28;;;6.60;99.90;;;;;;5050798;28;20279;-84
2022/11/14 09:37:04;;;;;;;74.82;40.15;;;6.50;99.90;;;;;;5062002;28;20228;-85
2022/11/14 09:39:36;;;;;;;83.25;43.30;;;6.40;99.90;;;;;;5047359;28;20406;-85
2022/11/14 09:42:20;;;;;;;85.75;42.72;;;6.50;99.90;;;;;;5055309;28;20201;-86
2022/11/14 09:45:01;;;;;;;87.70;44.33;;;6.70;99.90;;;;;;5041377;28;20216;-84
2022/11/14 09:47:31;;;;;;;77.38;48.10;;;6.80;99.90;;;;;;5042059;28;20416;-84
2022/11/14 09:50:07;;;;;;;68.82;39.80;;;6.80;99.90;;;;;;5056754;28;20258;-84
2022/11/14 09:52:45;;;;;;;63.75;38.83;;;7.00;99.90;;;;;;5040423;28;20250;-85
2022/11/14 09:55:16;;;;;;;66.78;36.92;;;7.30;99.90;;;;;;5049581;28;20219;-85
2022/11/14 09:57:44;;;;;;;63.30;37.67;;;7.20;99.90;;;;;;5042614;28;20236;-84
2022/11/14 10:00:22;;;;;;;66.88;38.60;;;7.00;99.90;;;;;;5046616;28;20445;-84
2022/11/14 10:03:13;;;;;;;55.67;33.33;;;7.00;99.90;;;;;;5044568;28;20212;-86
2022/11/14 10:05:57;;;;;;;60.72;37.38;;;7.20;99.90;;;;;;5051129;28;20220;-85
2022/11/14 10:09:01;;;;;;;77.75;36.85;;;7.10;99.90;;;;;;5045150;28;20232;-87
2022/11/14 10:11:38;;;;;;;66.50;41.50;;;7.30;99.90;;;;;;5042126;28;20235;-84
2022/11/14 10:14:43;;;;;;;60.85;36.30;;;7.20;99.90;;;;;;5048727;28;20197;-88
2022/11/14 10:17:13;;;;;;;60.58;35.83;;;7.30;99.90;;;;;;5041595;28;20234;-86
2022/11/14 10:20:22;;;;;;;57.60;35.85;;;7.40;99.90;;;;;;5046893;28;20258;-84
2022/11/14 10:22:57;;;;;;;58.38;37.97;;;7.60;99.90;;;;;;5053933;28;20189;-82
2022/11/14 10:25:40;;;;;;;53.50;29.75;;;7.80;99.90;;;;;;5048276;28;20215;-83
2022/11/14 10:28:22;;;;;;;51.17;30.60;;;8.00;99.90;;;;;;5045971;28;20222;-86
2022/11/14 10:31:34;;;;;;;51.72;34.33;;;7.90;99.90;;;;;;5030786;28;20204;-85
2022/11/14 10:34:10;;;;;;;51.78;33.38;;;7.80;99.90;;;;;;5040804;28;20208;-84
2022/11/14 10:37:04;;;;;;;51.13;31.80;;;7.70;99.90;;;;;;5044451;28;20216;-84
2022/11/14 10:39:41;;;;;;;45.22;29.13;;;7.90;99.90;;;;;;5056722;28;20185;-85
2022/11/14 10:42:33;;;;;;;50.00;34.35;;;7.80;99.90;;;;;;5040972;28;20200;-82
2022/11/14 10:45:38;;;;;;;48.33;30.45;;;7.90;99.90;;;;;;5035287;28;20209;-84
2022/11/14 10:48:14;;;;;;;56.47;31.80;;;7.70;99.90;;;;;;5036053;28;20279;-84
2022/11/14 10:50:54;;;;;;;52.22;31.75;;;7.80;99.90;;;;;;5045161;28;20209;-85
2022/11/14 10:53:45;;;;;;;47.92;31.70;;;7.90;99.90;;;;;;5037858;28;20504;-84
2022/11/14 10:56:13;;;;;;;52.05;29.63;;;8.20;99.90;;;;;;5037785;28;20262;-83
2022/11/14 10:58:46;;;;;;;56.17;31.67;;;8.30;99.90;;;;;;5055005;28;20212;-89
2022/11/14 11:01:52;;;;;;;45.63;29.98;;;8.50;99.90;;;;;;5073572;28;20204;-81
2022/11/14 11:04:32;;;;;;;45.95;29.60;;;8.60;99.90;;;;;;5062601;28;20211;-83
2022/11/14 11:07:09;;;;;;;45.70;29.80;;;8.70;99.90;;;;;;5045498;28;20563;-86
2022/11/14 11:12:47;;;;;;;40.72;30.33;;;8.30;99.90;;;;;;5041505;28;20189;-84
2022/11/14 11:15:21;;;;;;;49.20;32.75;;;8.50;99.90;;;;;;5040441;28;20224;-83
2022/11/14 11:18:20;;;;;;;45.78;28.42;;;8.50;99.90;;;;;;5040056;28;20239;-85
2022/11/14 11:21:08;;;;;;;43.42;29.65;;;8.40;99.90;;;;;;5055144;28;20243;-85
2022/11/14 11:23:52;;;;;;;44.88;27.88;;;8.40;99.90;;;;;;5054451;28;20205;-86
2022/11/14 11:26:23;;;;;;;45.75;30.98;;;8.30;99.90;;;;;;5053309;28;20203;-83
2022/11/14 11:29:18;;;;;;;40.60;29.40;;;8.30;99.90;;;;;;5048892;28;20193;-86
2022/11/14 11:31:46;;;;;;;42.72;28.85;;;8.20;99.90;;;;;;5047239;28;20408;-86
2022/11/14 11:34:14;;;;;;;44.80;30.00;;;8.40;99.90;;;;;;5044612;28;20318;-87
2022/11/14 11:36:49;;;;;;;44.78;26.65;;;8.50;99.90;;;;;;5039141;28;20243;-87
2022/11/14 11:39:28;;;;;;;43.95;28.35;;;8.60;99.90;;;;;;5045019;28;20328;-84
2022/11/14 11:42:00;;;;;;;38.78;28.42;;;8.70;99.90;;;;;;5039900;28;20192;-85
2022/11/14 11:44:44;;;;;;;43.63;29.55;;;8.90;99.90;;;;;;5050233;28;20416;-86
2022/11/14 11:47:15;;;;;;;38.33;28.05;;;8.80;99.90;;;;;;5041770;28;20261;-85
2022/11/14 11:49:50;;;;;;;35.22;26.55;;;8.70;99.90;;;;;;5036706;28;20205;-86
2022/11/14 11:52:36;;;;;;;48.47;30.50;;;8.70;99.90;;;;;;5045151;28;20277;-83
2022/11/14 11:55:22;;;;;;;37.85;27.02;;;8.90;99.90;;;;;;5046354;28;20393;-86
2022/11/14 11:58:12;;;;;;;40.58;27.25;;;9.00;99.90;;;;;;5034810;28;20224;-86
2022/11/14 12:00:39;;;;;;;31.88;25.02;;;9.00;99.90;;;;;;5039849;28;20240;-86
2022/11/14 12:03:14;;;;;;;43.03;27.80;;;9.10;99.90;;;;;;5046813;28;20204;-84
2022/11/14 12:06:16;;;;;;;40.65;25.92;;;9.10;99.90;;;;;;5045414;28;20216;-84
2022/11/14 12:09:13;;;;;;;34.97;25.98;;;9.20;99.90;;;;;;5046711;28;20213;-83
2022/11/14 12:11:57;;;;;;;33.83;22.17;;;9.20;99.90;;;;;;5051444;28;20200;-84
2022/11/14 12:14:56;;;;;;;32.30;22.52;;;9.20;99.90;;;;;;5048710;28;20235;-87
2022/11/14 12:17:30;;;;;;;37.17;25.02;;;9.10;99.90;;;;;;5046910;28;20298;-86
2022/11/14 12:20:18;;;;;;;31.55;23.10;;;9.30;99.90;;;;;;5046838;28;20208;-84
2022/11/14 12:23:13;;;;;;;36.65;25.58;;;9.30;99.90;;;;;;5045873;28;20207;-85
2022/11/14 12:26:07;;;;;;;32.80;25.20;;;9.50;99.90;;;;;;5035870;28;20211;-83
2022/11/14 12:28:44;;;;;;;31.55;22.40;;;9.70;99.90;;;;;;5060272;28;20204;-86
2022/11/14 12:31:15;;;;;;;33.92;23.25;;;9.70;99.90;;;;;;5048999;28;20209;-87
2022/11/14 12:33:56;;;;;;;35.70;23.23;;;9.80;99.90;;;;;;5066711;28;20193;-87
2022/11/14 12:36:33;;;;;;;35.80;23.60;;;9.80;99.90;;;;;;5063376;28;20196;-86
2022/11/14 12:39:01;;;;;;;39.63;26.15;;;9.70;99.90;;;;;;5058670;28;20197;-85
2022/11/14 12:41:35;;;;;;;32.13;22.95;;;9.80;99.90;;;;;;5047697;28;20507;-83
2022/11/14 12:44:19;;;;;;;37.85;24.80;;;9.90;99.90;;;;;;5048956;28;20203;-86
2022/11/14 12:47:04;;;;;;;29.95;22.30;;;10.00;99.90;;;;;;5034416;28;20230;-84
2022/11/14 12:49:38;;;;;;;33.58;23.05;;;10.00;99.90;;;;;;5042697;28;20205;-86
2022/11/14 12:52:42;;;;;;;32.33;23.02;;;9.90;99.90;;;;;;5044030;28;20205;-84
2022/11/14 12:55:24;;;;;;;31.25;23.05;;;10.00;99.90;;;;;;5040568;28;20240;-85
2022/11/14 12:58:08;;;;;;;31.90;25.65;;;10.00;99.90;;;;;;5041179;28;20224;-83
2022/11/14 13:01:16;;;;;;;32.30;22.67;;;10.00;99.90;;;;;;5044229;28;20262;-84
2022/11/14 13:04:05;;;;;;;35.28;24.55;;;9.90;99.90;;;;;;5042695;28;20201;-84
2022/11/14 13:06:45;;;;;;;32.50;21.85;;;10.00;99.90;;;;;;5044228;28;20526;-87